Time;durP1;ratioP1;P1;durP2;ratioP2;P2;SDS_P1;SDS_P2;PMS_P1;PMS_P2;Temp;Humidity;BMP_temperature;BMP_pressure;BME280_temperature;BME280_humidity;BME280_pressure;Samples;Min_cycle;Max_cycle;Signal;HPM_P1;HPM_P2
2022/01/26 00:06:29;;;;;;;123.82;30.90;;;5.90;99.90;;;;;;5073519;28;20063;-82
2022/01/26 00:08:55;;;;;;;102.50;29.25;;;5.80;99.90;;;;;;5056356;28;20393;-82
2022/01/26 00:11:22;;;;;;;107.55;29.30;;;5.70;99.90;;;;;;5072977;28;20050;-82
2022/01/26 00:13:47;;;;;;;108.25;30.45;;;5.70;99.90;;;;;;5072760;28;20054;-82
2022/01/26 00:16:26;;;;;;;97.57;27.20;;;5.80;99.90;;;;;;5072560;28;20441;-82
2022/01/26 00:18:55;;;;;;;124.13;31.13;;;5.80;99.90;;;;;;5072487;28;20102;-82
2022/01/26 00:21:29;;;;;;;97.07;28.27;;;5.80;99.90;;;;;;5055998;28;20041;-82
2022/01/26 00:29:15;;;;;;;127.00;30.95;;;5.70;99.90;;;;;;5056146;28;20049;-82
2022/01/26 00:42:48;;;;;;;108.47;30.45;;;5.80;99.90;;;;;;5072570;28;20048;-82
2022/01/26 00:45:20;;;;;;;127.20;32.08;;;5.70;99.90;;;;;;5056095;28;20045;-82
2022/01/26 00:47:46;;;;;;;116.45;30.90;;;5.60;99.90;;;;;;5060458;28;20060;-82
2022/01/26 00:50:12;;;;;;;105.32;29.45;;;5.50;99.90;;;;;;5076456;28;20044;-81
2022/01/26 00:52:43;;;;;;;138.20;32.72;;;5.30;99.90;;;;;;5076379;28;20048;-81
2022/01/26 00:55:15;;;;;;;144.27;32.38;;;5.50;99.90;;;;;;5076519;28;20099;-81
2022/01/26 00:57:42;;;;;;;118.05;31.38;;;5.30;99.90;;;;;;5109682;28;20492;-82
2022/01/26 01:00:11;;;;;;;140.82;30.95;;;5.30;99.90;;;;;;5076393;28;20048;-82
2022/01/26 01:02:37;;;;;;;147.50;33.15;;;5.30;99.90;;;;;;5075799;28;20048;-82
2022/01/26 01:05:12;;;;;;;145.73;33.45;;;5.30;99.90;;;;;;5059564;28;20044;-82
2022/01/26 01:07:40;;;;;;;154.30;35.60;;;5.20;99.90;;;;;;5076067;28;20045;-82
2022/01/26 01:10:06;;;;;;;157.15;32.45;;;5.20;99.90;;;;;;5060014;28;20048;-82
2022/01/26 01:12:38;;;;;;;120.50;31.30;;;5.30;99.90;;;;;;5076005;28;20095;-82
2022/01/26 01:15:05;;;;;;;156.43;34.13;;;5.30;99.90;;;;;;5075692;28;20088;-82
2022/01/26 01:17:37;;;;;;;145.50;34.30;;;5.30;99.90;;;;;;5042482;28;20047;-82
2022/01/26 01:22:53;;;;;;;163.60;35.92;;;5.10;99.90;;;;;;5075929;28;20467;-82
2022/01/26 01:30:34;;;;;;;156.48;36.92;;;5.20;99.90;;;;;;5075908;28;20405;-81
2022/01/26 01:33:13;;;;;;;159.18;35.92;;;5.10;99.90;;;;;;5045045;28;20083;-81
2022/01/26 01:35:41;;;;;;;165.55;40.00;;;4.90;99.90;;;;;;5076273;28;20055;-81
2022/01/26 01:38:10;;;;;;;157.63;35.75;;;4.70;99.90;;;;;;5075684;28;20083;-81
2022/01/26 01:40:40;;;;;;;169.02;36.97;;;4.60;99.90;;;;;;5058971;28;20467;-81
2022/01/26 01:43:07;;;;;;;153.75;34.80;;;4.70;99.90;;;;;;5075286;28;20044;-81
2022/01/26 01:45:38;;;;;;;165.35;35.45;;;4.80;99.90;;;;;;5108934;28;20044;-81
2022/01/26 01:48:05;;;;;;;141.07;33.22;;;4.80;99.90;;;;;;5058711;28;20114;-81
2022/01/26 01:50:35;;;;;;;145.90;35.00;;;4.90;99.90;;;;;;5109263;28;20106;-81
2022/01/26 01:53:02;;;;;;;161.90;36.72;;;4.90;99.90;;;;;;5076126;28;20127;-81
2022/01/26 01:55:31;;;;;;;143.93;35.78;;;5.00;99.90;;;;;;5042302;28;20055;-81
2022/01/26 01:57:58;;;;;;;149.05;34.45;;;4.90;99.90;;;;;;5074338;28;20174;-82
2022/01/26 02:00:25;;;;;;;141.32;33.55;;;4.90;99.90;;;;;;5108767;28;20151;-81
2022/01/26 02:02:52;;;;;;;155.98;35.92;;;5.00;99.90;;;;;;5059119;28;20052;-81
2022/01/26 02:05:18;;;;;;;157.60;35.15;;;5.00;99.90;;;;;;5075933;28;20067;-81
2022/01/26 02:07:44;;;;;;;129.73;32.20;;;5.00;99.90;;;;;;5075038;28;20137;-81
2022/01/26 02:10:10;;;;;;;131.02;31.38;;;4.90;99.90;;;;;;5074920;28;20080;-82
2022/01/26 02:12:41;;;;;;;145.35;34.40;;;5.10;99.90;;;;;;5058423;28;20052;-81
2022/01/26 02:15:14;;;;;;;139.05;34.63;;;5.10;99.90;;;;;;5074612;28;20499;-81
2022/01/26 02:20:48;;;;;;;139.45;34.20;;;5.30;99.90;;;;;;5075325;28;20052;-82
2022/01/26 02:56:07;;;;;;;150.82;34.30;;;5.00;99.90;;;;;;5074480;28;20099;-81
2022/01/26 03:03:50;;;;;;;156.95;34.95;;;4.90;99.90;;;;;;5073855;28;20053;-81
2022/01/26 03:06:22;;;;;;;155.13;35.13;;;5.00;99.90;;;;;;5073691;28;20556;-81
2022/01/26 03:08:54;;;;;;;161.15;34.85;;;5.00;99.90;;;;;;5072865;28;20053;-81
2022/01/26 03:11:25;;;;;;;151.07;35.80;;;5.00;99.90;;;;;;5091820;28;20063;-81
2022/01/26 03:13:58;;;;;;;150.95;34.78;;;4.90;99.90;;;;;;5073910;28;20099;-81
2022/01/26 03:16:33;;;;;;;154.05;34.08;;;4.80;99.90;;;;;;5073287;28;20559;-82
2022/01/26 03:29:56;;;;;;;134.15;32.78;;;4.80;99.90;;;;;;5074019;28;20067;-81
2022/01/26 03:35:14;;;;;;;157.18;34.40;;;4.90;99.90;;;;;;5073557;28;20059;-81
2022/01/26 03:37:40;;;;;;;146.27;33.58;;;4.80;99.90;;;;;;5073879;28;20044;-81
2022/01/26 03:40:13;;;;;;;148.10;33.58;;;4.90;99.90;;;;;;5107446;28;20058;-81
2022/01/26 03:42:41;;;;;;;137.85;33.20;;;4.90;99.90;;;;;;5073458;28;20040;-81
2022/01/26 03:45:07;;;;;;;124.60;30.27;;;4.90;99.90;;;;;;5056796;28;20040;-81
2022/01/26 03:47:32;;;;;;;127.97;31.05;;;5.00;99.90;;;;;;5056450;28;20048;-81
2022/01/26 03:49:58;;;;;;;137.35;31.00;;;5.10;99.90;;;;;;5056372;28;20048;-81
2022/01/26 03:52:24;;;;;;;126.75;30.48;;;5.30;99.90;;;;;;5073074;28;20048;-82
2022/01/26 03:54:49;;;;;;;137.35;31.30;;;5.20;99.90;;;;;;5073638;28;20041;-82
2022/01/26 03:57:15;;;;;;;117.95;29.83;;;5.20;99.90;;;;;;5072472;28;20105;-83
2022/01/26 03:59:41;;;;;;;124.13;30.85;;;5.10;99.90;;;;;;5056436;28;20131;-82
2022/01/26 04:02:06;;;;;;;129.32;30.83;;;5.30;99.90;;;;;;5073199;28;20597;-82
2022/01/26 04:04:39;;;;;;;135.23;32.60;;;5.40;99.90;;;;;;5039607;28;20048;-82
2022/01/26 04:07:05;;;;;;;125.03;30.10;;;5.40;99.90;;;;;;5056372;28;20084;-82
2022/01/26 04:09:31;;;;;;;97.70;27.35;;;5.30;99.90;;;;;;5057351;28;20040;-82
2022/01/26 04:11:56;;;;;;;107.00;28.88;;;5.30;99.90;;;;;;5073206;28;20081;-82
2022/01/26 04:14:27;;;;;;;129.85;31.45;;;5.40;99.90;;;;;;5072513;28;20117;-81
2022/01/26 04:16:53;;;;;;;118.28;29.42;;;5.60;99.90;;;;;;5055730;28;20064;-82
2022/01/26 04:19:20;;;;;;;111.82;28.38;;;5.50;99.90;;;;;;5072242;28;20040;-82
2022/01/26 04:26:55;;;;;;;103.35;28.77;;;5.30;99.90;;;;;;5056840;28;20476;-82
2022/01/26 04:29:28;;;;;;;88.00;24.08;;;5.30;99.90;;;;;;5072449;28;20426;-81
2022/01/26 04:31:54;;;;;;;109.97;27.55;;;5.20;99.90;;;;;;5057094;28;20056;-82
2022/01/26 04:34:20;;;;;;;100.68;26.42;;;5.20;99.90;;;;;;5073310;28;20040;-81
2022/01/26 04:36:54;;;;;;;103.10;27.08;;;5.20;99.90;;;;;;5072653;28;20391;-82
2022/01/26 04:39:28;;;;;;;94.88;26.35;;;5.20;99.90;;;;;;5105837;28;20055;-81
2022/01/26 04:42:08;;;;;;;102.95;26.85;;;5.00;99.90;;;;;;5072771;28;20049;-81
2022/01/26 04:44:41;;;;;;;94.10;25.05;;;4.80;99.90;;;;;;5057821;28;20395;-82
2022/01/26 04:47:06;;;;;;;79.75;24.27;;;5.00;99.90;;;;;;5055524;28;20048;-82
2022/01/26 04:49:34;;;;;;;93.93;26.05;;;5.10;99.90;;;;;;5072463;28;20131;-82
2022/01/26 04:52:00;;;;;;;87.97;26.55;;;5.10;99.90;;;;;;5072122;28;20044;-82
2022/01/26 04:54:26;;;;;;;82.38;25.00;;;5.00;99.90;;;;;;5072382;28;20395;-82
2022/01/26 04:56:52;;;;;;;86.35;25.50;;;4.90;99.90;;;;;;5106455;28;20044;-82
2022/01/26 04:59:17;;;;;;;82.50;24.42;;;4.80;99.90;;;;;;5071683;28;20055;-82
2022/01/26 05:01:43;;;;;;;94.72;25.30;;;4.90;99.90;;;;;;5072485;28;20041;-82
2022/01/26 05:04:09;;;;;;;110.13;27.63;;;5.10;99.90;;;;;;5072147;28;20479;-82
2022/01/26 05:06:35;;;;;;;106.57;27.92;;;5.10;99.90;;;;;;5055543;28;20106;-82
2022/01/26 05:09:01;;;;;;;94.55;26.25;;;5.00;99.90;;;;;;5072288;28;20083;-82
2022/01/26 05:11:34;;;;;;;88.70;24.67;;;4.90;99.90;;;;;;5054900;28;20131;-82
2022/01/26 05:14:00;;;;;;;105.20;28.38;;;4.90;99.90;;;;;;5072404;28;20052;-82
2022/01/26 05:16:26;;;;;;;103.40;28.67;;;4.90;99.90;;;;;;5071769;28;20127;-82
2022/01/26 05:18:53;;;;;;;127.00;29.35;;;4.90;99.90;;;;;;5055660;28;20080;-82
2022/01/26 05:21:19;;;;;;;110.82;28.98;;;5.00;99.90;;;;;;5072057;28;20044;-82
2022/01/26 05:23:45;;;;;;;110.50;28.85;;;5.00;99.90;;;;;;5056114;28;20056;-82
2022/01/26 05:26:12;;;;;;;107.05;27.05;;;4.90;99.90;;;;;;5072046;28;20048;-82
2022/01/26 05:28:38;;;;;;;89.82;25.00;;;5.00;99.90;;;;;;5054970;28;20076;-81
2022/01/26 05:31:04;;;;;;;101.72;25.75;;;4.90;99.90;;;;;;5055358;28;20040;-82
2022/01/26 05:33:30;;;;;;;87.22;24.30;;;4.90;99.90;;;;;;5041460;28;20048;-82
2022/01/26 05:35:56;;;;;;;99.20;26.90;;;4.90;99.90;;;;;;5059048;28;20049;-82
2022/01/26 05:38:21;;;;;;;85.32;24.50;;;4.80;99.90;;;;;;5076066;28;20040;-82
2022/01/26 05:40:47;;;;;;;103.38;25.92;;;4.70;99.90;;;;;;5059053;28;20044;-82
2022/01/26 05:43:15;;;;;;;99.43;25.27;;;4.70;99.90;;;;;;5075455;28;20084;-82
2022/01/26 05:45:43;;;;;;;100.35;27.25;;;4.90;99.90;;;;;;5042496;28;20047;-82
2022/01/26 05:48:12;;;;;;;93.53;25.55;;;4.90;99.90;;;;;;5075455;28;20135;-82
2022/01/26 05:50:38;;;;;;;92.28;24.73;;;4.80;99.90;;;;;;5075056;28;20059;-82
2022/01/26 05:53:05;;;;;;;94.80;25.02;;;4.70;99.90;;;;;;5075792;28;20044;-82
2022/01/26 05:55:30;;;;;;;107.15;25.38;;;4.70;99.90;;;;;;5092490;28;20051;-82
2022/01/26 05:57:56;;;;;;;108.88;27.27;;;4.80;99.90;;;;;;5041332;28;20036;-82
2022/01/26 06:00:22;;;;;;;87.80;22.83;;;4.80;99.90;;;;;;5075500;28;20575;-82
2022/01/26 06:02:47;;;;;;;100.20;25.30;;;4.70;99.90;;;;;;5059071;28;20048;-82
2022/01/26 06:05:13;;;;;;;97.18;25.40;;;4.60;99.90;;;;;;5075639;28;20048;-82
2022/01/26 06:07:39;;;;;;;90.60;25.48;;;4.60;99.90;;;;;;5074663;28;20134;-82
2022/01/26 06:10:06;;;;;;;88.57;24.48;;;4.70;99.90;;;;;;5108272;28;20048;-82
2022/01/26 06:12:33;;;;;;;89.70;23.10;;;4.80;99.90;;;;;;5074882;28;20083;-82
2022/01/26 06:15:03;;;;;;;104.10;25.23;;;4.70;99.90;;;;;;5074466;28;20088;-82
2022/01/26 06:17:29;;;;;;;102.57;26.98;;;4.80;99.90;;;;;;5058050;28;20052;-82
2022/01/26 06:19:55;;;;;;;100.38;26.17;;;4.90;99.90;;;;;;5074474;28;20090;-82
2022/01/26 06:22:21;;;;;;;97.57;25.70;;;4.80;99.90;;;;;;5058027;28;20054;-82
2022/01/26 06:24:47;;;;;;;93.75;24.27;;;4.80;99.90;;;;;;5058545;28;20040;-82
2022/01/26 06:27:12;;;;;;;103.82;26.92;;;4.70;99.90;;;;;;5074637;28;20052;-82
2022/01/26 06:29:38;;;;;;;97.97;25.35;;;4.60;99.90;;;;;;5074224;28;20048;-82
2022/01/26 06:32:05;;;;;;;107.32;26.98;;;4.50;99.90;;;;;;5058096;28;20384;-82
2022/01/26 06:34:31;;;;;;;98.53;25.02;;;4.50;99.90;;;;;;5074181;28;20052;-82
2022/01/26 06:36:57;;;;;;;99.93;26.65;;;4.50;99.90;;;;;;5074445;28;20055;-82
2022/01/26 06:39:22;;;;;;;94.97;26.20;;;4.60;99.90;;;;;;5074229;28;20412;-82
2022/01/26 06:41:52;;;;;;;98.53;24.73;;;4.60;99.90;;;;;;5074388;28;20059;-82
2022/01/26 06:44:27;;;;;;;96.82;24.02;;;4.60;99.90;;;;;;5073554;28;20496;-82
2022/01/26 06:47:30;;;;;;;98.00;25.67;;;4.60;99.90;;;;;;5058537;28;20056;-82
2022/01/26 06:49:39;;;;;;;89.78;26.98;;;4.70;99.90;;;;;;5073987;28;20056;-82
2022/01/26 06:52:05;;;;;;;108.57;27.63;;;4.50;99.90;;;;;;5057548;28;20051;-81
2022/01/26 06:54:31;;;;;;;93.65;25.48;;;4.50;99.90;;;;;;5057824;28;20143;-81
2022/01/26 06:56:56;;;;;;;101.85;27.40;;;4.40;99.90;;;;;;5080256;28;20040;-81
2022/01/26 06:59:24;;;;;;;105.88;27.10;;;4.30;99.90;;;;;;5043759;28;20098;-82
2022/01/26 07:01:51;;;;;;;96.65;27.13;;;4.30;99.90;;;;;;5057138;28;20102;-82
2022/01/26 07:04:17;;;;;;;90.85;26.10;;;4.40;99.90;;;;;;5074227;28;20040;-82
2022/01/26 07:06:42;;;;;;;110.65;27.38;;;4.40;99.90;;;;;;5057563;28;20052;-82
2022/01/26 07:09:08;;;;;;;92.10;24.92;;;4.40;99.90;;;;;;5073849;28;20051;-82
2022/01/26 07:11:34;;;;;;;99.07;27.75;;;4.40;99.90;;;;;;5040744;28;20067;-82
2022/01/26 07:14:03;;;;;;;91.97;26.92;;;4.30;99.90;;;;;;5040372;28;20056;-82
2022/01/26 07:21:58;;;;;;;107.18;28.48;;;4.40;99.90;;;;;;5059576;28;20054;-81
2022/01/26 07:24:23;;;;;;;108.25;28.70;;;4.50;99.90;;;;;;5073694;28;20135;-82
2022/01/26 07:26:53;;;;;;;101.00;27.77;;;4.30;99.90;;;;;;5073507;28;20471;-81
2022/01/26 07:29:22;;;;;;;115.45;29.23;;;4.30;99.90;;;;;;5056874;28;20549;-82
2022/01/26 07:31:49;;;;;;;121.18;30.38;;;4.40;99.90;;;;;;5073416;28;20055;-81
2022/01/26 07:34:16;;;;;;;118.47;30.58;;;4.30;99.90;;;;;;5073479;28;20080;-81
2022/01/26 07:36:43;;;;;;;113.07;29.05;;;4.40;99.90;;;;;;5073061;28;20438;-82
2022/01/26 07:39:13;;;;;;;108.00;30.10;;;4.40;99.90;;;;;;5056520;28;20127;-81
2022/01/26 07:41:39;;;;;;;115.63;32.22;;;4.50;99.90;;;;;;5073162;28;20052;-82
2022/01/26 07:44:05;;;;;;;110.95;30.60;;;4.60;99.90;;;;;;5073077;28;20067;-82
2022/01/26 07:46:31;;;;;;;116.85;31.27;;;4.40;99.90;;;;;;5056546;28;20080;-82
2022/01/26 07:48:57;;;;;;;123.47;34.83;;;4.50;99.90;;;;;;5056639;28;20048;-82
2022/01/26 07:51:23;;;;;;;130.95;37.22;;;4.60;99.90;;;;;;5073027;28;20066;-82
2022/01/26 07:53:49;;;;;;;127.22;33.72;;;4.50;99.90;;;;;;5073386;28;20087;-82
2022/01/26 07:56:15;;;;;;;119.65;34.38;;;4.50;99.90;;;;;;5072797;28;20476;-82
2022/01/26 07:58:41;;;;;;;126.60;36.67;;;4.50;99.90;;;;;;5072390;28;20052;-82
2022/01/26 08:01:07;;;;;;;131.15;35.30;;;4.50;99.90;;;;;;5106942;28;20395;-81
2022/01/26 08:03:34;;;;;;;122.10;35.47;;;4.50;99.90;;;;;;5040078;28;20610;-81
2022/01/26 08:06:01;;;;;;;127.40;38.25;;;4.60;99.90;;;;;;5056219;28;20045;-81
2022/01/26 08:08:28;;;;;;;126.60;35.88;;;4.60;99.90;;;;;;5056278;28;20048;-81
2022/01/26 08:10:58;;;;;;;135.63;37.40;;;4.50;99.90;;;;;;5039775;28;20045;-81
2022/01/26 08:13:24;;;;;;;134.55;38.47;;;4.60;99.90;;;;;;5072716;28;20086;-81
2022/01/26 08:15:52;;;;;;;132.52;37.28;;;4.50;99.90;;;;;;5072298;28;20061;-81
2022/01/26 08:18:17;;;;;;;129.77;37.60;;;4.40;99.90;;;;;;5106676;28;20045;-81
2022/01/26 08:20:43;;;;;;;140.88;38.85;;;4.40;99.90;;;;;;5055917;28;20037;-81
2022/01/26 08:23:09;;;;;;;146.48;39.60;;;4.40;99.90;;;;;;5089922;28;20050;-80
2022/01/26 08:25:35;;;;;;;144.23;39.45;;;4.50;99.90;;;;;;5072541;28;20117;-80
2022/01/26 08:28:12;;;;;;;140.43;38.25;;;4.40;99.90;;;;;;5071843;28;20407;-80
2022/01/26 08:30:38;;;;;;;145.52;40.00;;;4.30;99.90;;;;;;5040896;28;20074;-81
2022/01/26 08:33:05;;;;;;;133.07;37.47;;;4.30;99.90;;;;;;5072594;28;20048;-81
2022/01/26 08:35:32;;;;;;;142.25;41.83;;;4.40;99.90;;;;;;5055994;28;20052;-73
2022/01/26 08:37:58;;;;;;;155.10;41.35;;;4.50;99.90;;;;;;5074239;28;20048;-72
2022/01/26 08:40:25;;;;;;;153.25;42.42;;;4.60;99.90;;;;;;5072357;28;20044;-74
2022/01/26 08:42:51;;;;;;;153.52;42.42;;;4.60;99.90;;;;;;5072598;28;20081;-75
2022/01/26 08:45:17;;;;;;;149.80;42.22;;;4.70;99.90;;;;;;5072426;28;20052;-76
2022/01/26 08:47:43;;;;;;;152.27;42.45;;;4.70;99.90;;;;;;5055741;28;20082;-75
2022/01/26 08:50:09;;;;;;;150.65;41.28;;;4.70;99.90;;;;;;5089345;28;20518;-76
2022/01/26 08:52:35;;;;;;;153.23;42.22;;;4.80;99.90;;;;;;5072381;28;20045;-75
2022/01/26 08:55:02;;;;;;;154.45;40.72;;;4.70;99.90;;;;;;5072348;28;20388;-75
2022/01/26 08:57:27;;;;;;;156.88;42.28;;;4.80;99.90;;;;;;5072378;28;20119;-75
2022/01/26 08:59:53;;;;;;;156.35;43.45;;;4.80;99.90;;;;;;5054895;28;20526;-75
2022/01/26 09:02:19;;;;;;;171.30;44.40;;;4.80;99.90;;;;;;5072301;28;20041;-75
2022/01/26 09:04:44;;;;;;;163.48;43.30;;;4.80;99.90;;;;;;5072313;28;20086;-75
2022/01/26 09:07:14;;;;;;;159.13;42.13;;;4.90;99.90;;;;;;5073018;28;20044;-75
2022/01/26 09:09:45;;;;;;;165.98;44.22;;;4.90;99.90;;;;;;5079345;28;20056;-74
2022/01/26 09:12:13;;;;;;;167.30;44.35;;;5.10;99.90;;;;;;5084701;28;20057;-75
2022/01/26 09:14:39;;;;;;;164.88;43.83;;;5.10;99.90;;;;;;5075771;28;20056;-75
2022/01/26 09:17:07;;;;;;;167.85;45.20;;;5.00;99.90;;;;;;5076838;28;20357;-73
2022/01/26 09:19:33;;;;;;;178.52;45.85;;;5.10;99.90;;;;;;5059139;28;20049;-73
2022/01/26 09:22:05;;;;;;;154.75;43.40;;;5.10;99.90;;;;;;5075846;28;20472;-74
2022/01/26 09:24:34;;;;;;;165.93;43.15;;;5.10;99.90;;;;;;5075921;28;20399;-73
2022/01/26 09:27:00;;;;;;;160.80;42.90;;;5.10;99.90;;;;;;5075908;28;20536;-73
2022/01/26 09:29:26;;;;;;;162.68;43.50;;;5.10;99.90;;;;;;5075240;28;20113;-73
2022/01/26 09:31:53;;;;;;;146.77;41.17;;;5.10;99.90;;;;;;5075771;28;20088;-74
2022/01/26 09:34:21;;;;;;;158.82;41.60;;;5.10;99.90;;;;;;5076445;28;20048;-74
2022/01/26 09:36:47;;;;;;;155.43;42.40;;;5.10;99.90;;;;;;5075582;28;20144;-73
2022/01/26 09:39:16;;;;;;;151.75;42.47;;;5.00;99.90;;;;;;5075444;28;20054;-73
2022/01/26 09:41:45;;;;;;;160.88;46.97;;;5.10;99.90;;;;;;5075671;28;20052;-73
2022/01/26 09:44:11;;;;;;;155.10;44.03;;;5.10;99.90;;;;;;5075767;28;20048;-73
2022/01/26 09:46:38;;;;;;;152.77;42.75;;;5.10;99.90;;;;;;5075854;28;20044;-73
2022/01/26 09:49:05;;;;;;;159.40;43.30;;;5.10;99.90;;;;;;5076294;28;20055;-72
2022/01/26 09:51:33;;;;;;;133.85;39.72;;;5.10;99.90;;;;;;5075798;28;20056;-79
2022/01/26 09:54:04;;;;;;;149.77;41.67;;;5.10;99.90;;;;;;5076131;28;20048;-73
2022/01/26 09:56:30;;;;;;;135.95;39.40;;;5.20;99.90;;;;;;5076235;28;20135;-72
2022/01/26 09:58:56;;;;;;;144.85;40.75;;;5.30;99.90;;;;;;5074547;28;20144;-72
2022/01/26 10:01:22;;;;;;;149.07;42.20;;;5.30;99.90;;;;;;5076242;28;20040;-72
2022/01/26 10:03:50;;;;;;;147.82;45.95;;;5.40;99.90;;;;;;5075079;28;20055;-72
2022/01/26 10:06:28;;;;;;;135.75;39.88;;;5.30;99.90;;;;;;5075732;28;20483;-72
2022/01/26 10:19:25;;;;;;;140.55;41.28;;;5.30;99.90;;;;;;5066878;28;20167;-75
2022/01/26 10:21:52;;;;;;;123.88;41.00;;;5.30;99.90;;;;;;5064912;28;20293;-77
2022/01/26 10:24:24;;;;;;;147.20;40.53;;;5.40;99.90;;;;;;5088180;27;20060;-77
2022/01/26 10:26:56;;;;;;;122.53;38.63;;;5.30;99.90;;;;;;5060925;28;20098;-75
2022/01/26 10:29:22;;;;;;;122.32;39.53;;;5.30;99.90;;;;;;5064004;28;20052;-74
2022/01/26 10:31:48;;;;;;;133.30;40.42;;;5.30;99.90;;;;;;5065445;28;20048;-78
2022/01/26 10:34:23;;;;;;;128.43;40.38;;;5.20;99.90;;;;;;5065922;28;20056;-75
2022/01/26 10:36:51;;;;;;;114.22;36.75;;;5.20;99.90;;;;;;5088402;27;21311;-77
2022/01/26 10:39:28;;;;;;;125.95;36.83;;;5.10;99.90;;;;;;5073145;28;20044;-74
2022/01/26 10:41:59;;;;;;;118.03;37.13;;;5.20;99.90;;;;;;5047676;28;20059;-80
2022/01/26 10:44:32;;;;;;;109.45;38.97;;;5.20;99.90;;;;;;5076367;28;20121;-72
2022/01/26 10:47:03;;;;;;;110.63;35.33;;;5.00;99.90;;;;;;5074029;28;20182;-72
2022/01/26 10:54:52;;;;;;;114.40;35.55;;;5.00;99.90;;;;;;5074160;28;20186;-71
2022/01/26 10:57:18;;;;;;;117.57;36.88;;;5.00;99.90;;;;;;5076211;28;20496;-72
2022/01/26 10:59:48;;;;;;;118.38;36.83;;;5.10;99.90;;;;;;5076610;28;20093;-75
2022/01/26 11:02:20;;;;;;;104.38;35.28;;;5.10;99.90;;;;;;5093171;28;20506;-74
2022/01/26 11:04:46;;;;;;;113.47;34.28;;;5.10;99.90;;;;;;5095116;28;20047;-75
2022/01/26 11:07:14;;;;;;;108.47;34.00;;;5.10;99.90;;;;;;5075451;28;20511;-73
2022/01/26 11:09:44;;;;;;;116.68;34.83;;;5.20;99.90;;;;;;5056937;28;20044;-73
2022/01/26 11:12:13;;;;;;;106.57;32.35;;;5.30;99.90;;;;;;5073700;28;20136;-72
2022/01/26 11:14:56;;;;;;;106.93;35.97;;;5.20;99.90;;;;;;5073421;28;20143;-73
2022/01/26 11:17:35;;;;;;;119.22;37.80;;;5.20;99.90;;;;;;5074395;28;20102;-73
2022/01/26 11:20:22;;;;;;;110.28;33.83;;;5.20;99.90;;;;;;5073158;28;20048;-73
2022/01/26 11:22:56;;;;;;;108.22;34.10;;;5.20;99.90;;;;;;5073552;28;20559;-73
2022/01/26 11:25:26;;;;;;;116.32;34.13;;;5.20;99.90;;;;;;5056506;28;20127;-73
2022/01/26 11:27:53;;;;;;;120.20;33.55;;;5.20;99.90;;;;;;5056084;28;20048;-73
2022/01/26 11:30:31;;;;;;;120.88;33.35;;;5.20;99.90;;;;;;5106314;28;20483;-73
2022/01/26 11:33:03;;;;;;;121.13;33.45;;;5.20;99.90;;;;;;5073242;28;20057;-73
2022/01/26 11:35:35;;;;;;;119.25;32.72;;;5.30;99.90;;;;;;5089640;28;20114;-74
2022/01/26 11:38:29;;;;;;;118.32;32.65;;;5.30;99.90;;;;;;5077996;28;20369;-74
2022/01/26 11:46:23;;;;;;;118.03;33.95;;;5.60;99.90;;;;;;5073271;28;20101;-73
2022/01/26 11:49:21;;;;;;;117.30;32.33;;;5.80;99.90;;;;;;5056477;28;20497;-73
2022/01/26 11:51:50;;;;;;;136.57;34.15;;;5.80;99.90;;;;;;5056215;28;20488;-73
2022/01/26 11:54:18;;;;;;;134.00;34.00;;;5.80;99.90;;;;;;5072965;28;20067;-73
2022/01/26 11:57:18;;;;;;;130.98;33.42;;;5.90;99.90;;;;;;5078210;28;20091;-72
2022/01/26 12:00:00;;;;;;;124.72;31.75;;;6.00;99.90;;;;;;5060771;28;20053;-75
2022/01/26 12:02:59;;;;;;;122.20;33.83;;;6.00;99.90;;;;;;5066610;28;20139;-76
2022/01/26 12:05:25;;;;;;;118.35;34.60;;;6.10;99.90;;;;;;5062540;28;20091;-78
2022/01/26 12:07:57;;;;;;;131.75;36.75;;;6.10;99.90;;;;;;5062659;28;20051;-77
2022/01/26 12:10:32;;;;;;;139.77;39.25;;;6.00;99.90;;;;;;5064421;28;20048;-75
2022/01/26 12:13:07;;;;;;;135.43;38.60;;;5.90;99.90;;;;;;5063043;28;21440;-77
2022/01/26 12:15:45;;;;;;;141.70;38.28;;;5.70;99.90;;;;;;5062484;28;20056;-75
2022/01/26 12:42:53;;;;;;;132.35;35.17;;;6.00;99.90;;;;;;5070894;28;20048;-72
2022/01/26 12:45:27;;;;;;;137.90;36.80;;;5.90;99.90;;;;;;5097577;28;20052;-72
2022/01/26 12:47:55;;;;;;;115.20;34.40;;;5.90;99.90;;;;;;5097062;28;20067;-73
2022/01/26 12:50:22;;;;;;;118.85;32.45;;;5.90;99.90;;;;;;5097788;28;20044;-73
2022/01/26 12:52:52;;;;;;;128.48;35.80;;;5.90;99.90;;;;;;5097887;28;20044;-73
2022/01/26 12:55:32;;;;;;;108.80;32.67;;;5.90;99.90;;;;;;5097687;28;20402;-73
2022/01/26 12:57:58;;;;;;;118.60;33.97;;;5.90;99.90;;;;;;5097172;28;20044;-73
2022/01/26 13:00:25;;;;;;;129.25;35.03;;;5.90;99.90;;;;;;5097560;28;20522;-73
2022/01/26 13:02:54;;;;;;;133.68;36.17;;;5.80;99.90;;;;;;5096084;28;20470;-72
2022/01/26 13:05:25;;;;;;;120.15;32.13;;;5.70;99.90;;;;;;5097491;28;20093;-72
2022/01/26 13:08:01;;;;;;;114.30;32.72;;;5.60;99.90;;;;;;5097437;28;20052;-73
2022/01/26 13:10:28;;;;;;;131.35;36.55;;;5.60;99.90;;;;;;5097461;28;20077;-73
2022/01/26 13:12:54;;;;;;;125.05;34.65;;;5.70;99.90;;;;;;5097335;28;20044;-73
2022/01/26 13:15:37;;;;;;;114.65;34.13;;;5.70;99.90;;;;;;5097045;28;20105;-73
2022/01/26 13:18:17;;;;;;;124.85;34.17;;;5.90;99.90;;;;;;5097223;28;20055;-73
2022/01/26 13:23:34;;;;;;;118.75;34.80;;;6.10;99.90;;;;;;5097252;28;20473;-72
2022/01/26 13:29:22;;;;;;;111.65;33.55;;;6.00;99.90;;;;;;5093801;28;20052;-73
2022/01/26 13:32:18;;;;;;;115.25;35.35;;;6.20;99.90;;;;;;5097062;28;20051;-73
2022/01/26 13:40:12;;;;;;;124.88;34.15;;;6.20;99.90;;;;;;5097099;28;20048;-72
2022/01/26 13:48:20;;;;;;;122.97;32.30;;;6.10;99.90;;;;;;5096258;28;20048;-73
2022/01/26 13:51:08;;;;;;;115.03;31.70;;;6.10;99.90;;;;;;5097192;28;20051;-73
2022/01/26 13:53:49;;;;;;;93.47;29.92;;;6.20;99.90;;;;;;5096484;28;20399;-73
2022/01/26 13:56:30;;;;;;;97.47;30.02;;;6.10;99.90;;;;;;5096633;28;20052;-73
2022/01/26 13:59:33;;;;;;;93.35;30.85;;;5.90;99.90;;;;;;5095776;28;20384;-73
2022/01/26 14:01:49;;;;;;;100.60;31.15;;;5.90;99.90;;;;;;5094014;28;20135;-73
2022/01/26 14:04:16;;;;;;;94.70;29.60;;;5.90;99.90;;;;;;5095649;28;20048;-73
2022/01/26 14:06:44;;;;;;;99.70;31.30;;;6.00;99.90;;;;;;5096474;28;20135;-72
2022/01/26 14:09:09;;;;;;;102.97;31.73;;;6.00;99.90;;;;;;5095232;28;20055;-73
2022/01/26 14:11:35;;;;;;;99.22;31.92;;;6.20;99.90;;;;;;5096297;28;20044;-73
2022/01/26 14:14:02;;;;;;;83.68;29.40;;;6.30;99.90;;;;;;5096247;28;20054;-73
2022/01/26 14:16:33;;;;;;;91.78;29.92;;;6.20;99.90;;;;;;5096129;28;20063;-73
2022/01/26 14:26:46;;;;;;;86.10;30.48;;;6.20;99.90;;;;;;5094942;28;20083;-73
2022/01/26 14:35:11;;;;;;;97.13;28.80;;;6.00;99.90;;;;;;5075962;28;20048;-73
2022/01/26 14:51:21;;;;;;;85.20;27.58;;;6.30;99.90;;;;;;5094720;28;20051;-72
2022/01/26 15:34:58;;;;;;;84.80;28.90;;;6.10;99.90;;;;;;5094764;28;20055;-72
2022/01/26 15:40:30;;;;;;;85.90;27.58;;;6.10;99.90;;;;;;5093575;28;20471;-72
2022/01/26 15:43:49;;;;;;;100.72;31.35;;;6.10;99.90;;;;;;5094607;28;20047;-73
2022/01/26 15:48:47;;;;;;;105.00;30.63;;;6.20;99.90;;;;;;5093327;28;20566;-75
2022/01/26 15:51:33;;;;;;;88.68;28.90;;;6.10;99.90;;;;;;5094442;28;20054;-76
2022/01/26 16:12:43;;;;;;;93.32;28.55;;;6.40;99.90;;;;;;5093186;28;20059;-75
2022/01/26 16:21:16;;;;;;;95.63;28.33;;;6.30;99.90;;;;;;5094046;28;20052;-75
2022/01/26 18:33:13;;;;;;;87.35;27.90;;;6.60;99.90;;;;;;5095030;28;20415;-83
2022/01/26 18:38:52;;;;;;;78.40;26.25;;;6.60;99.90;;;;;;5094942;28;20092;-83
2022/01/26 18:46:49;;;;;;;74.20;25.95;;;6.70;99.90;;;;;;5094677;28;20395;-84
2022/01/26 18:49:19;;;;;;;80.93;26.20;;;6.70;99.90;;;;;;5094078;28;20380;-84
2022/01/26 18:51:55;;;;;;;79.70;25.77;;;6.70;99.90;;;;;;5094833;28;20387;-84
2022/01/26 18:54:29;;;;;;;67.07;24.65;;;6.70;99.90;;;;;;5094684;28;20147;-87
2022/01/26 18:56:57;;;;;;;75.03;25.58;;;6.70;99.90;;;;;;5095952;28;20055;-86
2022/01/26 18:59:24;;;;;;;71.35;23.23;;;6.70;99.90;;;;;;5076218;28;20082;-87
2022/01/26 19:01:55;;;;;;;67.60;24.38;;;6.70;99.90;;;;;;5094857;28;20376;-87
2022/01/26 19:04:27;;;;;;;61.70;23.27;;;6.80;99.90;;;;;;5094871;28;20048;-88
2022/01/26 19:06:54;;;;;;;60.85;21.08;;;6.90;99.90;;;;;;5094491;28;20113;-88
2022/01/26 19:09:23;;;;;;;59.45;21.25;;;6.80;99.90;;;;;;5094662;28;20067;-87
2022/01/26 19:11:50;;;;;;;54.00;21.23;;;6.80;99.90;;;;;;5094081;28;20451;-87
2022/01/26 19:14:15;;;;;;;59.88;22.65;;;6.80;99.90;;;;;;5094276;28;20143;-87